Artemis — SWZE — position and weather

sailwx.info

Track history (hours):
 
Tides and Currents Weather Stations Pressure Air Temp Water Temp Dewpoint Dewpoint Depression Visibility Wind Speed Wind Dir Waves Ship Positions

Artemis

Last reported at 2015-May-28 10:33 UTC. Time now 2015-May-29 06:16 UTC.
Position N 37°31' E 024°50'.

Length 89 m.

Type: Ship. MMSI: 237026300.

Date/timePositionNaut miles runAvg speedWind from/ knotsBaromVisibWave heightAir tempDewpointWater temp
2015-May-28 10:33N 37°31' E 024°50'7 6.7
2015-May-28 09:33N 37°26' E 024°56'9 9.4
2015-May-28 08:34N 37°18' E 024°50'20 1.1
2015-May-27 14:33N 37°02' E 024°37'19 9.7
2015-May-27 12:34N 37°18' E 024°50'10 9.8
2015-May-27 11:33N 37°27' E 024°57'0 0.0
2015-May-27 10:33N 37°27' E 024°57'2 2.4
2015-May-27 09:33N 37°27' E 024°59'8 7.8
2015-May-27 08:33N 37°34' E 025°05'1614.4
2015-May-27 07:27N 37°45' E 024°51'5 2.4
2015-May-27 05:33N 37°42' E 024°55'1414.4
2015-May-27 04:33N 37°32' E 025°09'1111.2
2015-May-27 03:33N 37°27' E 024°57'0 0.0
2015-May-27 02:33N 37°27' E 024°57'0 0.0
2015-May-27 01:33N 37°27' E 024°57'0 0.0
2015-May-27 00:33N 37°27' E 024°57'0 0.0
2015-May-26 23:33N 37°27' E 024°57'0 0.0
2015-May-26 22:33N 37°27' E 024°57'0 0.0
2015-May-26 21:33N 37°27' E 024°57'0 0.0
2015-May-26 20:33N 37°27' E 024°57'0 0.0
2015-May-26 19:33N 37°27' E 024°57'0 0.0
2015-May-26 18:33N 37°27' E 024°57'1313.1
2015-May-26 17:33N 37°15' E 025°03'10 9.7
2015-May-26 16:33N 37°05' E 025°07'1514.4
2015-May-26 15:32N 37°07' E 024°49'8 0.9
2015-May-26 06:34N 37°06' E 024°59'6 6.1
2015-May-26 05:33N 37°07' E 025°07'1414.4
2015-May-26 04:34N 37°20' E 025°00'7 6.8
2015-May-26 03:33N 37°27' E 024°57'0 0.0
2015-May-26 02:33N 37°27' E 024°57'0 0.0
2015-May-26 01:33N 37°27' E 024°57'0 0.0
2015-May-26 00:33N 37°27' E 024°57'0 0.0
2015-May-25 23:34N 37°27' E 024°57'0 0.0
2015-May-25 22:33N 37°27' E 024°57'0 0.0
2015-May-25 21:33N 37°27' E 024°57'0 0.0
2015-May-25 20:33N 37°27' E 024°57'1 0.9
2015-May-25 19:33N 37°26' E 024°57'1211.6
2015-May-25 18:33N 37°31' E 024°44'1913.6
2015-May-25 17:10N 37°25' E 024°22'18 6.5
2015-May-25 14:26N 37°38' E 024°07'40 4.0
2015-May-25 04:25N 37°30' E 024°56'4 4.3
2015-May-25 03:33N 37°27' E 024°57'0 0.0
2015-May-25 02:33N 37°27' E 024°57'0 0.0
2015-May-25 01:33N 37°27' E 024°57'0 0.0
2015-May-25 00:32N 37°27' E 024°57'0 0.0
2015-May-24 23:33N 37°27' E 024°57'0 0.0
2015-May-24 22:33N 37°27' E 024°57'0 0.0
2015-May-24 21:33N 37°27' E 024°57'0 0.0
2015-May-24 20:33N 37°27' E 024°57'0 0.0
2015-May-24 19:33N 37°27' E 024°57'8 7.8
2015-May-24 18:33N 37°20' E 025°01'1514.5
2015-May-24 17:33N 37°06' E 025°07'7 7.1
2015-May-24 16:34N 37°06' E 024°59'1 0.1
2015-May-24 06:34N 37°06' E 025°00'5 5.4
2015-May-24 05:34N 37°07' E 025°07'1514.6
2015-May-24 04:34N 37°21' E 025°00'7 6.5
2015-May-24 03:33N 37°27' E 024°57'0 0.0
2015-May-24 02:31N 37°27' E 024°57'0 0.0
2015-May-24 01:31N 37°27' E 024°57'0 0.0
2015-May-24 00:26N 37°27' E 024°57'0 0.0
2015-May-23 23:33N 37°27' E 024°57'0 0.0
2015-May-23 22:33N 37°27' E 024°57'0 0.0
2015-May-23 21:33N 37°27' E 024°57'0 0.0
2015-May-23 20:33N 37°27' E 024°57'0 0.0
2015-May-23 19:33N 37°27' E 024°57'0 0.0
2015-May-23 18:33N 37°27' E 024°57'0 0.0
2015-May-23 17:33N 37°27' E 024°57'0 0.0
2015-May-23 16:33N 37°27' E 024°57'0 0.0
2015-May-23 15:30N 37°27' E 024°57'0 0.0
2015-May-23 14:32N 37°27' E 024°57'0 0.2
2015-May-23 13:33N 37°26' E 024°56'1212.4
2015-May-23 12:34N 37°15' E 025°03'1111.0
2015-May-23 11:33N 37°05' E 025°09'10 9.9
2015-May-23 10:34N 37°07' E 025°21'8 8.2
2015-May-23 09:33N 36°59' E 025°18'2110.4
2015-May-23 07:33N 36°40' E 025°08'11 9.8
2015-May-23 06:27N 36°39' E 024°55'6 0.4
2015-May-22 16:33N 36°37' E 025°02'3110.2
2015-May-22 13:34N 37°04' E 025°19'6 5.7
2015-May-22 12:33N 37°10' E 025°16'8 8.0
2015-May-22 11:33N 37°06' E 025°07'1414.4
2015-May-22 10:33N 37°19' E 025°01'8 8.4
2015-May-22 09:33N 37°27' E 024°57'7 0.3
2015-May-21 10:33N 37°31' E 024°51'7 6.1
2015-May-21 09:28N 37°26' E 024°57'1010.9
2015-May-21 08:33N 37°18' E 024°49'30 1.8
2015-May-20 15:31N 36°50' E 024°37'28 9.5
2015-May-20 12:33N 37°16' E 024°47'1312.5
2015-May-20 11:33N 37°26' E 024°57'1 0.6
2015-May-20 10:33N 37°27' E 024°57'2 2.5
2015-May-20 09:33N 37°27' E 024°60'8 7.9
2015-May-20 08:33N 37°34' E 025°05'1514.1
2015-May-20 07:32N 37°44' E 024°53'3 1.3
2015-May-20 05:33N 37°42' E 024°54'1515.1
2015-May-20 04:34N 37°32' E 025°08'1110.8
2015-May-20 03:32N 37°26' E 024°57'0 0.1
2015-May-20 02:33N 37°27' E 024°57'0 0.0
2015-May-20 01:33N 37°27' E 024°57'0 0.0
2015-May-20 00:33N 37°27' E 024°57'0 0.0
2015-May-19 23:33N 37°27' E 024°57'0 0.0
2015-May-19 22:33N 37°27' E 024°57'0 0.0
2015-May-19 21:32N 37°27' E 024°57'0 0.0
2015-May-19 20:33N 37°27' E 024°57'0 0.0
2015-May-19 19:33N 37°27' E 024°57'0 0.0
2015-May-19 18:33N 37°27' E 024°57'1513.1
2015-May-19 17:25N 37°13' E 025°04'7 7.7
2015-May-19 16:28N 37°06' E 025°07'5 0.5
2015-May-19 06:33N 37°06' E 024°60'5 5.2
2015-May-19 05:34N 37°07' E 025°06'1514.8
2015-May-19 04:33N 37°21' E 024°60'6 6.0
2015-May-19 03:33N 37°27' E 024°57'0 0.0
2015-May-19 02:33N 37°27' E 024°57'0 0.0
2015-May-19 01:33N 37°27' E 024°57'0 0.0
2015-May-19 00:33N 37°27' E 024°57'0 0.0
2015-May-18 23:33N 37°27' E 024°57'0 0.0
2015-May-18 22:33N 37°27' E 024°57'0 0.0
2015-May-18 21:33N 37°27' E 024°57'0 0.0
2015-May-18 20:33N 37°27' E 024°57'0 0.3
2015-May-18 19:33N 37°26' E 024°57'1110.7
2015-May-18 18:33N 37°31' E 024°45'  
Track history (hours):
 
Tides and Currents Weather Stations Pressure Air Temp Water Temp Dewpoint Dewpoint Depression Visibility Wind Speed Wind Dir Waves Ship Positions

Artemis

Last reported at 2015-May-28 10:33 UTC. Time now 2015-May-29 06:16 UTC.
Position N 37°31' E 024°50'.

Length 89 m.

Type: Ship. MMSI: 237026300.

Date/timePositionNaut miles runAvg speedWind from/ knotsBaromVisibWave heightAir tempDewpointWater temp
2015-May-28 10:33N 37°31' E 024°50'7 6.7
2015-May-28 09:33N 37°26' E 024°56'9 9.4
2015-May-28 08:34N 37°18' E 024°50'20 1.1
2015-May-27 14:33N 37°02' E 024°37'19 9.7
2015-May-27 12:34N 37°18' E 024°50'10 9.8
2015-May-27 11:33N 37°27' E 024°57'0 0.0
2015-May-27 10:33N 37°27' E 024°57'2 2.4
2015-May-27 09:33N 37°27' E 024°59'8 7.8
2015-May-27 08:33N 37°34' E 025°05'1614.4
2015-May-27 07:27N 37°45' E 024°51'5 2.4
2015-May-27 05:33N 37°42' E 024°55'1414.4
2015-May-27 04:33N 37°32' E 025°09'1111.2
2015-May-27 03:33N 37°27' E 024°57'0 0.0
2015-May-27 02:33N 37°27' E 024°57'0 0.0
2015-May-27 01:33N 37°27' E 024°57'0 0.0
2015-May-27 00:33N 37°27' E 024°57'0 0.0
2015-May-26 23:33N 37°27' E 024°57'0 0.0
2015-May-26 22:33N 37°27' E 024°57'0 0.0
2015-May-26 21:33N 37°27' E 024°57'0 0.0
2015-May-26 20:33N 37°27' E 024°57'0 0.0
2015-May-26 19:33N 37°27' E 024°57'0 0.0
2015-May-26 18:33N 37°27' E 024°57'1313.1
2015-May-26 17:33N 37°15' E 025°03'10 9.7
2015-May-26 16:33N 37°05' E 025°07'1514.4
2015-May-26 15:32N 37°07' E 024°49'8 0.9
2015-May-26 06:34N 37°06' E 024°59'6 6.1
2015-May-26 05:33N 37°07' E 025°07'1414.4
2015-May-26 04:34N 37°20' E 025°00'7 6.8
2015-May-26 03:33N 37°27' E 024°57'0 0.0
2015-May-26 02:33N 37°27' E 024°57'0 0.0
2015-May-26 01:33N 37°27' E 024°57'0 0.0
2015-May-26 00:33N 37°27' E 024°57'0 0.0
2015-May-25 23:34N 37°27' E 024°57'0 0.0
2015-May-25 22:33N 37°27' E 024°57'0 0.0
2015-May-25 21:33N 37°27' E 024°57'0 0.0
2015-May-25 20:33N 37°27' E 024°57'1 0.9
2015-May-25 19:33N 37°26' E 024°57'1211.6
2015-May-25 18:33N 37°31' E 024°44'1913.6
2015-May-25 17:10N 37°25' E 024°22'18 6.5
2015-May-25 14:26N 37°38' E 024°07'40 4.0
2015-May-25 04:25N 37°30' E 024°56'4 4.3
2015-May-25 03:33N 37°27' E 024°57'0 0.0
2015-May-25 02:33N 37°27' E 024°57'0 0.0
2015-May-25 01:33N 37°27' E 024°57'0 0.0
2015-May-25 00:32N 37°27' E 024°57'0 0.0
2015-May-24 23:33N 37°27' E 024°57'0 0.0
2015-May-24 22:33N 37°27' E 024°57'0 0.0
2015-May-24 21:33N 37°27' E 024°57'0 0.0
2015-May-24 20:33N 37°27' E 024°57'0 0.0
2015-May-24 19:33N 37°27' E 024°57'8 7.8
2015-May-24 18:33N 37°20' E 025°01'1514.5
2015-May-24 17:33N 37°06' E 025°07'7 7.1
2015-May-24 16:34N 37°06' E 024°59'1 0.1
2015-May-24 06:34N 37°06' E 025°00'5 5.4
2015-May-24 05:34N 37°07' E 025°07'1514.6
2015-May-24 04:34N 37°21' E 025°00'7 6.5
2015-May-24 03:33N 37°27' E 024°57'0 0.0
2015-May-24 02:31N 37°27' E 024°57'0 0.0
2015-May-24 01:31N 37°27' E 024°57'0 0.0
2015-May-24 00:26N 37°27' E 024°57'0 0.0
2015-May-23 23:33N 37°27' E 024°57'0 0.0
2015-May-23 22:33N 37°27' E 024°57'0 0.0
2015-May-23 21:33N 37°27' E 024°57'0 0.0
2015-May-23 20:33N 37°27' E 024°57'0 0.0
2015-May-23 19:33N 37°27' E 024°57'0 0.0
2015-May-23 18:33N 37°27' E 024°57'0 0.0
2015-May-23 17:33N 37°27' E 024°57'0 0.0
2015-May-23 16:33N 37°27' E 024°57'0 0.0
2015-May-23 15:30N 37°27' E 024°57'0 0.0
2015-May-23 14:32N 37°27' E 024°57'0 0.2
2015-May-23 13:33N 37°26' E 024°56'1212.4
2015-May-23 12:34N 37°15' E 025°03'1111.0
2015-May-23 11:33N 37°05' E 025°09'10 9.9
2015-May-23 10:34N 37°07' E 025°21'8 8.2
2015-May-23 09:33N 36°59' E 025°18'2110.4
2015-May-23 07:33N 36°40' E 025°08'11 9.8
2015-May-23 06:27N 36°39' E 024°55'6 0.4
2015-May-22 16:33N 36°37' E 025°02'3110.2
2015-May-22 13:34N 37°04' E 025°19'6 5.7
2015-May-22 12:33N 37°10' E 025°16'8 8.0
2015-May-22 11:33N 37°06' E 025°07'1414.4
2015-May-22 10:33N 37°19' E 025°01'8 8.4
2015-May-22 09:33N 37°27' E 024°57'7 0.3
2015-May-21 10:33N 37°31' E 024°51'7 6.1
2015-May-21 09:28N 37°26' E 024°57'1010.9
2015-May-21 08:33N 37°18' E 024°49'30 1.8
2015-May-20 15:31N 36°50' E 024°37'28 9.5
2015-May-20 12:33N 37°16' E 024°47'1312.5
2015-May-20 11:33N 37°26' E 024°57'1 0.6
2015-May-20 10:33N 37°27' E 024°57'2 2.5
2015-May-20 09:33N 37°27' E 024°60'8 7.9
2015-May-20 08:33N 37°34' E 025°05'1514.1
2015-May-20 07:32N 37°44' E 024°53'3 1.3
2015-May-20 05:33N 37°42' E 024°54'1515.1
2015-May-20 04:34N 37°32' E 025°08'1110.8
2015-May-20 03:32N 37°26' E 024°57'0 0.1
2015-May-20 02:33N 37°27' E 024°57'0 0.0
2015-May-20 01:33N 37°27' E 024°57'0 0.0
2015-May-20 00:33N 37°27' E 024°57'0 0.0
2015-May-19 23:33N 37°27' E 024°57'0 0.0
2015-May-19 22:33N 37°27' E 024°57'0 0.0
2015-May-19 21:32N 37°27' E 024°57'0 0.0
2015-May-19 20:33N 37°27' E 024°57'0 0.0
2015-May-19 19:33N 37°27' E 024°57'0 0.0
2015-May-19 18:33N 37°27' E 024°57'1513.1
2015-May-19 17:25N 37°13' E 025°04'7 7.7
2015-May-19 16:28N 37°06' E 025°07'5 0.5
2015-May-19 06:33N 37°06' E 024°60'5 5.2
2015-May-19 05:34N 37°07' E 025°06'1514.8
2015-May-19 04:33N 37°21' E 024°60'6 6.0
2015-May-19 03:33N 37°27' E 024°57'0 0.0
2015-May-19 02:33N 37°27' E 024°57'0 0.0
2015-May-19 01:33N 37°27' E 024°57'0 0.0
2015-May-19 00:33N 37°27' E 024°57'0 0.0
2015-May-18 23:33N 37°27' E 024°57'0 0.0
2015-May-18 22:33N 37°27' E 024°57'0 0.0
2015-May-18 21:33N 37°27' E 024°57'0 0.0
2015-May-18 20:33N 37°27' E 024°57'0 0.3
2015-May-18 19:33N 37°26' E 024°57'1110.7
2015-May-18 18:33N 37°31' E 024°45'  

Dump ship's entire track history